Clymene — 9HRG8 — position and weather

sailwx.info

Track history (hours):
 
Tides and Currents Weather Stations Pressure Air Temp Water Temp Dewpoint Dewpoint Depression Visibility Wind Speed Wind Dir Waves Ship Positions

Clymene

Last reported at 2018-Feb-23 22:56 UTC. Time now 2018-Feb-24 00:45 UTC.
Position N 36°58' W 076°25'.

Length 225 m; draft 7 m.

Type: Cargo ship. MMSI: 249161000.

Date/timePositionNaut miles runAvg speedWind from/ knotsBaromVisibWave heightAir tempDewpointWater temp
2018-Feb-23 22:56N 36°58' W 076°25'0 0.0
2018-Feb-23 22:26N 36°58' W 076°25'0 0.0
2018-Feb-23 21:56N 36°58' W 076°25'0 0.0
2018-Feb-23 21:21N 36°58' W 076°25'1 2.6
2018-Feb-23 20:55N 36°57' W 076°24'4 9.0
2018-Feb-23 20:27N 36°59' W 076°19'511.6
2018-Feb-23 19:59N 37°00' W 076°13'613.0
2018-Feb-23 19:30N 36°58' W 076°05'3 6.3
2018-Feb-23 19:00N 37°00' W 076°02'612.0
2018-Feb-23 18:30N 37°05' W 076°06'612.0
2018-Feb-23 17:58N 37°11' W 076°09'3 2.9
2018-Feb-23 17:04N 37°13' W 076°06'0 0.0
2018-Feb-23 16:55N 37°13' W 076°06'0 0.0
2018-Feb-23 16:28N 37°13' W 076°06'0 0.0
2018-Feb-23 15:58N 37°13' W 076°06'0 0.0
2018-Feb-23 15:28N 37°13' W 076°06'0 0.0
2018-Feb-23 14:52N 37°13' W 076°06'0 0.0
2018-Feb-23 14:16N 37°13' W 076°06'0 0.0
2018-Feb-23 13:57N 37°13' W 076°06'0 0.1
2018-Feb-23 13:30N 37°13' W 076°06'0 0.0
2018-Feb-23 13:00N 37°13' W 076°06'0 0.0
2018-Feb-23 12:15N 37°13' W 076°06'0 0.1
2018-Feb-23 12:00N 37°13' W 076°06'0 0.1
2018-Feb-23 11:27N 37°13' W 076°06'0 0.2
2018-Feb-23 10:45N 37°13' W 076°06'0 0.1
2018-Feb-23 10:27N 37°13' W 076°06'0 0.1
2018-Feb-23 09:54N 37°13' W 076°06'0 0.2
2018-Feb-23 09:30N 37°13' W 076°06'0 0.1
2018-Feb-23 08:57N 37°13' W 076°06'0 0.0
2018-Feb-23 08:18N 37°13' W 076°06'0 0.0
2018-Feb-23 08:00N 37°13' W 076°06'0 0.0
2018-Feb-23 07:30N 37°13' W 076°06'0 0.0
2018-Feb-23 06:57N 37°13' W 076°07'0 0.0
2018-Feb-23 06:24N 37°13' W 076°07'0 0.3
2018-Feb-23 05:57N 37°13' W 076°07'0 0.1
2018-Feb-23 05:27N 37°13' W 076°07'0 0.0
2018-Feb-23 04:54N 37°13' W 076°07'0 0.1
2018-Feb-23 04:27N 37°13' W 076°07'0 0.1
2018-Feb-23 04:00N 37°13' W 076°07'0 0.0
2018-Feb-23 03:15N 37°13' W 076°07'0 0.0
2018-Feb-23 02:57N 37°13' W 076°07'0 0.0
2018-Feb-23 02:27N 37°13' W 076°07'0 0.1
2018-Feb-23 02:00N 37°13' W 076°07'0 0.1
2018-Feb-23 01:30N 37°13' W 076°06'0 0.0
2018-Feb-23 00:39N 37°13' W 076°06'0 0.0
2018-Feb-23 00:30N 37°13' W 076°06'0 0.1
2018-Feb-22 23:48N 37°13' W 076°06'0 0.0
2018-Feb-22 23:27N 37°13' W 076°07'0 0.0
2018-Feb-22 22:48N 37°13' W 076°07'0 0.2
2018-Feb-22 22:24N 37°13' W 076°07'0 0.2
2018-Feb-22 21:57N 37°13' W 076°07'0 0.2
2018-Feb-22 21:30N 37°13' W 076°07'0 0.1
2018-Feb-22 20:39N 37°13' W 076°06'0 0.1
2018-Feb-22 20:24N 37°13' W 076°07'0 0.0
2018-Feb-22 19:27N 37°13' W 076°07'0 0.0
2018-Feb-22 18:57N 37°13' W 076°07'0 0.0
2018-Feb-22 18:15N 37°13' W 076°07'0 0.2
2018-Feb-22 17:57N 37°13' W 076°07'0 0.2
2018-Feb-22 17:21N 37°13' W 076°07'0 0.2
2018-Feb-22 17:00N 37°13' W 076°06'0 0.1
2018-Feb-22 16:27N 37°13' W 076°06'0 0.0
2018-Feb-22 15:57N 37°13' W 076°06'0 0.0
2018-Feb-22 15:27N 37°13' W 076°06'0 0.0
2018-Feb-22 14:57N 37°13' W 076°06'0 0.0
2018-Feb-22 14:09N 37°13' W 076°06'0 0.1
2018-Feb-22 13:57N 37°13' W 076°06'0 0.0
2018-Feb-22 13:27N 37°13' W 076°06'0 0.1
2018-Feb-22 12:51N 37°13' W 076°06'0 0.0
2018-Feb-22 12:30N 37°13' W 076°06'0 0.0
2018-Feb-22 11:54N 37°13' W 076°06'0 0.1
2018-Feb-22 11:30N 37°13' W 076°06'0 0.1
2018-Feb-22 10:57N 37°13' W 076°06'0 0.1
2018-Feb-22 10:27N 37°13' W 076°06'0 0.0
2018-Feb-22 10:00N 37°13' W 076°06'0 0.0
2018-Feb-22 09:27N 37°13' W 076°06'0 0.1
2018-Feb-22 08:45N 37°13' W 076°06'0 0.1
2018-Feb-22 08:27N 37°13' W 076°06'0 0.1
2018-Feb-22 07:57N 37°13' W 076°06'0 0.0
2018-Feb-22 07:15N 37°13' W 076°06'0 0.1
2018-Feb-22 06:57N 37°13' W 076°06'0 0.0
2018-Feb-22 05:21N 37°13' W 076°07'0 0.1
2018-Feb-22 04:57N 37°13' W 076°07'0 0.2
2018-Feb-22 04:27N 37°13' W 076°07'0 0.2
2018-Feb-22 03:48N 37°13' W 076°06'0 0.1
2018-Feb-22 03:24N 37°13' W 076°06'0 0.0
2018-Feb-22 03:00N 37°13' W 076°06'0 0.1
2018-Feb-22 02:29N 37°13' W 076°06'0 0.1
2018-Feb-22 01:59N 37°13' W 076°06'0 0.0
2018-Feb-22 01:29N 37°13' W 076°06'0 0.0
2018-Feb-22 00:56N 37°13' W 076°06'0 0.1
2018-Feb-22 00:29N 37°13' W 076°06'0 0.0
2018-Feb-21 23:56N 37°13' W 076°06'0 0.0
2018-Feb-21 23:20N 37°13' W 076°06'0 0.1
2018-Feb-21 22:56N 37°13' W 076°06'0 0.1
2018-Feb-21 22:26N 37°13' W 076°06'0 0.1
2018-Feb-21 21:53N 37°13' W 076°06'0 0.1
2018-Feb-21 21:18N 37°13' W 076°06'0 0.1
2018-Feb-21 20:54N 37°13' W 076°06'0 0.1
2018-Feb-21 20:29N 37°13' W 076°06'0 0.1
2018-Feb-21 19:58N 37°13' W 076°06'0 0.0
2018-Feb-21 19:28N 37°13' W 076°06'1 1.2
2018-Feb-21 18:55N 37°13' W 076°07'4 9.2
2018-Feb-21 18:26N 37°09' W 076°09'512.3
2018-Feb-21 18:00N 37°05' W 076°06'612.0
2018-Feb-21 17:30N 36°60' W 076°01'510.0
2018-Feb-21 17:00N 36°56' W 075°57'4 9.0
2018-Feb-21 16:30N 36°53' W 075°53'7 9.6
2018-Feb-21 15:46N 36°50' W 075°45'  
Track history (hours):
 
Tides and Currents Weather Stations Pressure Air Temp Water Temp Dewpoint Dewpoint Depression Visibility Wind Speed Wind Dir Waves Ship Positions

Clymene

Last reported at 2018-Feb-23 22:56 UTC. Time now 2018-Feb-24 00:45 UTC.
Position N 36°58' W 076°25'.

Length 225 m; draft 7 m.

Type: Cargo ship. MMSI: 249161000.

Date/timePositionNaut miles runAvg speedWind from/ knotsBaromVisibWave heightAir tempDewpointWater temp
2018-Feb-23 22:56N 36°58' W 076°25'0 0.0
2018-Feb-23 22:26N 36°58' W 076°25'0 0.0
2018-Feb-23 21:56N 36°58' W 076°25'0 0.0
2018-Feb-23 21:21N 36°58' W 076°25'1 2.6
2018-Feb-23 20:55N 36°57' W 076°24'4 9.0
2018-Feb-23 20:27N 36°59' W 076°19'511.6
2018-Feb-23 19:59N 37°00' W 076°13'613.0
2018-Feb-23 19:30N 36°58' W 076°05'3 6.3
2018-Feb-23 19:00N 37°00' W 076°02'612.0
2018-Feb-23 18:30N 37°05' W 076°06'612.0
2018-Feb-23 17:58N 37°11' W 076°09'3 2.9
2018-Feb-23 17:04N 37°13' W 076°06'0 0.0
2018-Feb-23 16:55N 37°13' W 076°06'0 0.0
2018-Feb-23 16:28N 37°13' W 076°06'0 0.0
2018-Feb-23 15:58N 37°13' W 076°06'0 0.0
2018-Feb-23 15:28N 37°13' W 076°06'0 0.0
2018-Feb-23 14:52N 37°13' W 076°06'0 0.0
2018-Feb-23 14:16N 37°13' W 076°06'0 0.0
2018-Feb-23 13:57N 37°13' W 076°06'0 0.1
2018-Feb-23 13:30N 37°13' W 076°06'0 0.0
2018-Feb-23 13:00N 37°13' W 076°06'0 0.0
2018-Feb-23 12:15N 37°13' W 076°06'0 0.1
2018-Feb-23 12:00N 37°13' W 076°06'0 0.1
2018-Feb-23 11:27N 37°13' W 076°06'0 0.2
2018-Feb-23 10:45N 37°13' W 076°06'0 0.1
2018-Feb-23 10:27N 37°13' W 076°06'0 0.1
2018-Feb-23 09:54N 37°13' W 076°06'0 0.2
2018-Feb-23 09:30N 37°13' W 076°06'0 0.1
2018-Feb-23 08:57N 37°13' W 076°06'0 0.0
2018-Feb-23 08:18N 37°13' W 076°06'0 0.0
2018-Feb-23 08:00N 37°13' W 076°06'0 0.0
2018-Feb-23 07:30N 37°13' W 076°06'0 0.0
2018-Feb-23 06:57N 37°13' W 076°07'0 0.0
2018-Feb-23 06:24N 37°13' W 076°07'0 0.3
2018-Feb-23 05:57N 37°13' W 076°07'0 0.1
2018-Feb-23 05:27N 37°13' W 076°07'0 0.0
2018-Feb-23 04:54N 37°13' W 076°07'0 0.1
2018-Feb-23 04:27N 37°13' W 076°07'0 0.1
2018-Feb-23 04:00N 37°13' W 076°07'0 0.0
2018-Feb-23 03:15N 37°13' W 076°07'0 0.0
2018-Feb-23 02:57N 37°13' W 076°07'0 0.0
2018-Feb-23 02:27N 37°13' W 076°07'0 0.1
2018-Feb-23 02:00N 37°13' W 076°07'0 0.1
2018-Feb-23 01:30N 37°13' W 076°06'0 0.0
2018-Feb-23 00:39N 37°13' W 076°06'0 0.0
2018-Feb-23 00:30N 37°13' W 076°06'0 0.1
2018-Feb-22 23:48N 37°13' W 076°06'0 0.0
2018-Feb-22 23:27N 37°13' W 076°07'0 0.0
2018-Feb-22 22:48N 37°13' W 076°07'0 0.2
2018-Feb-22 22:24N 37°13' W 076°07'0 0.2
2018-Feb-22 21:57N 37°13' W 076°07'0 0.2
2018-Feb-22 21:30N 37°13' W 076°07'0 0.1
2018-Feb-22 20:39N 37°13' W 076°06'0 0.1
2018-Feb-22 20:24N 37°13' W 076°07'0 0.0
2018-Feb-22 19:27N 37°13' W 076°07'0 0.0
2018-Feb-22 18:57N 37°13' W 076°07'0 0.0
2018-Feb-22 18:15N 37°13' W 076°07'0 0.2
2018-Feb-22 17:57N 37°13' W 076°07'0 0.2
2018-Feb-22 17:21N 37°13' W 076°07'0 0.2
2018-Feb-22 17:00N 37°13' W 076°06'0 0.1
2018-Feb-22 16:27N 37°13' W 076°06'0 0.0
2018-Feb-22 15:57N 37°13' W 076°06'0 0.0
2018-Feb-22 15:27N 37°13' W 076°06'0 0.0
2018-Feb-22 14:57N 37°13' W 076°06'0 0.0
2018-Feb-22 14:09N 37°13' W 076°06'0 0.1
2018-Feb-22 13:57N 37°13' W 076°06'0 0.0
2018-Feb-22 13:27N 37°13' W 076°06'0 0.1
2018-Feb-22 12:51N 37°13' W 076°06'0 0.0
2018-Feb-22 12:30N 37°13' W 076°06'0 0.0
2018-Feb-22 11:54N 37°13' W 076°06'0 0.1
2018-Feb-22 11:30N 37°13' W 076°06'0 0.1
2018-Feb-22 10:57N 37°13' W 076°06'0 0.1
2018-Feb-22 10:27N 37°13' W 076°06'0 0.0
2018-Feb-22 10:00N 37°13' W 076°06'0 0.0
2018-Feb-22 09:27N 37°13' W 076°06'0 0.1
2018-Feb-22 08:45N 37°13' W 076°06'0 0.1
2018-Feb-22 08:27N 37°13' W 076°06'0 0.1
2018-Feb-22 07:57N 37°13' W 076°06'0 0.0
2018-Feb-22 07:15N 37°13' W 076°06'0 0.1
2018-Feb-22 06:57N 37°13' W 076°06'0 0.0
2018-Feb-22 05:21N 37°13' W 076°07'0 0.1
2018-Feb-22 04:57N 37°13' W 076°07'0 0.2
2018-Feb-22 04:27N 37°13' W 076°07'0 0.2
2018-Feb-22 03:48N 37°13' W 076°06'0 0.1
2018-Feb-22 03:24N 37°13' W 076°06'0 0.0
2018-Feb-22 03:00N 37°13' W 076°06'0 0.1
2018-Feb-22 02:29N 37°13' W 076°06'0 0.1
2018-Feb-22 01:59N 37°13' W 076°06'0 0.0
2018-Feb-22 01:29N 37°13' W 076°06'0 0.0
2018-Feb-22 00:56N 37°13' W 076°06'0 0.1
2018-Feb-22 00:29N 37°13' W 076°06'0 0.0
2018-Feb-21 23:56N 37°13' W 076°06'0 0.0
2018-Feb-21 23:20N 37°13' W 076°06'0 0.1
2018-Feb-21 22:56N 37°13' W 076°06'0 0.1
2018-Feb-21 22:26N 37°13' W 076°06'0 0.1
2018-Feb-21 21:53N 37°13' W 076°06'0 0.1
2018-Feb-21 21:18N 37°13' W 076°06'0 0.1
2018-Feb-21 20:54N 37°13' W 076°06'0 0.1
2018-Feb-21 20:29N 37°13' W 076°06'0 0.1
2018-Feb-21 19:58N 37°13' W 076°06'0 0.0
2018-Feb-21 19:28N 37°13' W 076°06'1 1.2
2018-Feb-21 18:55N 37°13' W 076°07'4 9.2
2018-Feb-21 18:26N 37°09' W 076°09'512.3
2018-Feb-21 18:00N 37°05' W 076°06'612.0
2018-Feb-21 17:30N 36°60' W 076°01'510.0
2018-Feb-21 17:00N 36°56' W 075°57'4 9.0
2018-Feb-21 16:30N 36°53' W 075°53'7 9.6
2018-Feb-21 15:46N 36°50' W 075°45'  

Dump ship's entire track history